Time;durP1;ratioP1;P1;durP2;ratioP2;P2;SDS_P1;SDS_P2;PMS_P1;PMS_P2;Temp;Humidity;BMP_temperature;BMP_pressure;BME280_temperature;BME280_humidity;BME280_pressure;Samples;Min_cycle;Max_cycle;Signal;HPM_P1;HPM_P2
2022/10/23 00:00:33;;;;;;;13.65;9.32;;;;;;;;;;5033965;28;20025;-88
2022/10/23 00:02:59;;;;;;;12.30;7.93;;;;;;;;;;5033999;28;20029;-87
2022/10/23 00:05:27;;;;;;;11.68;7.97;;;;;;;;;;5035922;28;20052;-86
2022/10/23 00:07:54;;;;;;;12.98;8.73;;;;;;;;;;5036275;28;20033;-87
2022/10/23 00:10:20;;;;;;;17.48;7.97;;;;;;;;;;5034146;28;20029;-85
2022/10/23 00:12:47;;;;;;;13.82;8.70;;;;;;;;;;5033721;28;20532;-86
2022/10/23 00:15:14;;;;;;;15.40;9.48;;;;;;;;;;5045096;28;20017;-86
2022/10/23 00:17:40;;;;;;;11.55;8.40;;;;;;;;;;5043804;28;20056;-87
2022/10/23 00:20:07;;;;;;;12.23;8.30;;;;;;;;;;5033909;28;20505;-88
2022/10/23 00:22:33;;;;;;;13.27;9.60;;;;;;;;;;5032836;28;20037;-87
2022/10/23 00:24:59;;;;;;;10.43;8.30;;;;;;;;;;5034183;28;20059;-89
2022/10/23 00:27:26;;;;;;;14.90;10.27;;;;;;;;;;5034218;28;20037;-84
2022/10/23 00:29:52;;;;;;;16.35;10.02;;;;;;;;;;5032822;28;20397;-85
2022/10/23 00:32:18;;;;;;;14.55;11.18;;;;;;;;;;5035231;28;20486;-86
2022/10/23 00:34:44;;;;;;;17.30;9.55;;;;;;;;;;5046757;28;20014;-84
2022/10/23 00:37:10;;;;;;;10.43;7.40;;;;;;;;;;5044598;28;20030;-84
2022/10/23 00:39:36;;;;;;;18.42;10.00;;;;;;;;;;5038853;28;20029;-86
2022/10/23 00:42:03;;;;;;;14.32;9.45;;;;;;;;;;5037867;28;20375;-85
2022/10/23 00:44:29;;;;;;;15.15;9.48;;;;;;;;;;5048895;28;20036;-84
2022/10/23 00:46:55;;;;;;;18.10;8.93;;;;;;;;;;5049196;28;20029;-84
2022/10/23 00:49:21;;;;;;;12.80;9.57;;;;;;;;;;5031442;28;20108;-84
2022/10/23 00:51:52;;;;;;;12.07;8.93;;;;;;;;;;5033022;28;20043;-83
2022/10/23 00:54:20;;;;;;;16.50;9.05;;;;;;;;;;5030419;28;20029;-84
2022/10/23 00:56:46;;;;;;;16.40;11.20;;;;;;;;;;5040448;28;20028;-83
2022/10/23 00:59:13;;;;;;;15.10;9.95;;;;;;;;;;5046873;28;20052;-84
2022/10/23 01:01:40;;;;;;;18.55;9.75;;;;;;;;;;5043100;28;20041;-83
2022/10/23 01:04:07;;;;;;;18.38;9.85;;;;;;;;;;5036796;28;20026;-84
2022/10/23 01:06:51;;;;;;;17.02;9.55;;;;;;;;;;5015756;28;20033;-84
2022/10/23 01:09:33;;;;;;;17.10;9.50;;;;;;;;;;5032209;28;20030;-83
2022/10/23 01:12:14;;;;;;;13.23;8.32;;;;;;;;;;5031347;28;20406;-83
2022/10/23 01:14:55;;;;;;;16.30;9.65;;;;;;;;;;5022953;28;20065;-84
2022/10/23 01:17:21;;;;;;;17.75;9.73;;;;;;;;;;5039214;28;20014;-81
2022/10/23 01:19:47;;;;;;;15.07;8.45;;;;;;;;;;5033712;28;20025;-82
2022/10/23 01:22:20;;;;;;;14.00;9.77;;;;;;;;;;5033122;28;20037;-85
2022/10/23 01:24:53;;;;;;;13.48;9.02;;;;;;;;;;5032826;28;20386;-82
2022/10/23 01:27:32;;;;;;;19.92;9.25;;;;;;;;;;5032623;28;20025;-84
2022/10/23 01:30:02;;;;;;;15.65;8.90;;;;;;;;;;5033317;28;20433;-83
2022/10/23 01:32:39;;;;;;;17.50;8.38;;;;;;;;;;5025305;28;20447;-82
2022/10/23 01:35:05;;;;;;;14.02;9.35;;;;;;;;;;5035346;28;20166;-85
2022/10/23 01:37:42;;;;;;;15.68;8.98;;;;;;;;;;5028536;28;20064;-85
2022/10/23 01:40:13;;;;;;;16.17;9.38;;;;;;;;;;5032863;28;20025;-86
2022/10/23 01:42:42;;;;;;;16.85;9.38;;;;;;;;;;5033595;28;20051;-83
2022/10/23 01:45:11;;;;;;;12.07;8.27;;;;;;;;;;5035127;28;20108;-84
2022/10/23 01:47:38;;;;;;;13.15;8.23;;;;;;;;;;5033558;28;20385;-84
2022/10/23 01:50:05;;;;;;;12.38;7.72;;;;;;;;;;5031830;28;20057;-83
2022/10/23 01:52:31;;;;;;;;;;;;;;;;;;5029291;28;20040;-85
2022/10/23 01:54:59;;;;;;;15.07;8.40;;;;;;;;;;5027793;28;20008;-84
2022/10/23 01:57:25;;;;;;;;;;;;;;;;;;5037735;28;20029;-85
2022/10/23 01:59:53;;;;;;;15.27;9.77;;;;;;;;;;5034330;28;20377;-84
2022/10/23 02:02:20;;;;;;;14.88;9.05;;;;;;;;;;5032546;28;20486;-84
2022/10/23 02:04:54;;;;;;;14.90;9.32;;;;;;;;;;5032202;28;20025;-85
2022/10/23 02:07:21;;;;;;;13.27;9.43;;;;;;;;;;5023626;28;20072;-84
2022/10/23 02:09:47;;;;;;;12.50;9.20;;;;;;;;;;5026563;28;20025;-82
2022/10/23 02:12:18;;;;;;;12.27;9.48;;;;;;;;;;5034689;28;20022;-84
2022/10/23 02:14:50;;;;;;;15.52;9.20;;;;;;;;;;5033626;28;20030;-83
2022/10/23 02:17:21;;;;;;;12.90;9.27;;;;;;;;;;5037026;28;20022;-84
2022/10/23 02:19:54;;;;;;;14.68;8.05;;;;;;;;;;5030950;28;20018;-84
2022/10/23 02:22:28;;;;;;;16.92;9.27;;;;;;;;;;5036832;28;20033;-85
2022/10/23 02:25:09;;;;;;;13.35;8.27;;;;;;;;;;5023404;28;20048;-84
2022/10/23 02:27:36;;;;;;;18.40;9.27;;;;;;;;;;5016818;28;20030;-85
2022/10/23 02:30:10;;;;;;;16.52;9.27;;;;;;;;;;5031072;28;20033;-84
2022/10/23 02:32:38;;;;;;;14.85;10.38;;;;;;;;;;5042743;28;20041;-84
2022/10/23 02:35:05;;;;;;;14.07;9.35;;;;;;;;;;5031769;28;20532;-82
2022/10/23 02:37:32;;;;;;;16.55;8.95;;;;;;;;;;5036075;28;20029;-82
2022/10/23 02:39:58;;;;;;;16.23;10.48;;;;;;;;;;5035585;28;20026;-84
2022/10/23 02:42:37;;;;;;;12.10;8.88;;;;;;;;;;5029952;28;20042;-83
2022/10/23 02:45:09;;;;;;;19.15;10.32;;;;;;;;;;5035485;28;20030;-83
2022/10/23 02:47:44;;;;;;;15.25;10.18;;;;;;;;;;5034011;28;20029;-84
2022/10/23 02:50:17;;;;;;;16.38;10.40;;;;;;;;;;5035690;28;20036;-83
2022/10/23 02:52:43;;;;;;;15.43;10.40;;;;;;;;;;5038925;28;20359;-82
2022/10/23 02:55:09;;;;;;;18.35;10.10;;;;;;;;;;5035566;28;20064;-84
2022/10/23 02:57:38;;;;;;;14.68;9.75;;;;;;;;;;5024344;28;20026;-84
2022/10/23 03:00:04;;;;;;;20.83;11.55;;;;;;;;;;5035631;28;20037;-83
2022/10/23 03:02:36;;;;;;;17.58;10.18;;;;;;;;;;5034609;28;20116;-83
2022/10/23 03:05:04;;;;;;;15.50;10.50;;;;;;;;;;5032627;28;20025;-83
2022/10/23 03:07:30;;;;;;;13.68;9.63;;;;;;;;;;5034823;28;20125;-82
2022/10/23 03:09:56;;;;;;;17.45;11.68;;;;;;;;;;5034546;28;20029;-83
2022/10/23 03:12:22;;;;;;;18.20;11.57;;;;;;;;;;5036968;28;20402;-81
2022/10/23 03:14:48;;;;;;;19.05;11.68;;;;;;;;;;5042387;28;20025;-82
2022/10/23 03:17:15;;;;;;;23.88;12.93;;;;;;;;;;5049524;28;20429;-82
2022/10/23 03:19:41;;;;;;;17.15;12.07;;;;;;;;;;5034824;28;20030;-84
2022/10/23 03:22:07;;;;;;;15.07;10.35;;;;;;;;;;5036639;28;20025;-82
2022/10/23 03:24:33;;;;;;;19.98;12.93;;;;;;;;;;5036005;28;20045;-82
2022/10/23 03:26:59;;;;;;;17.48;10.82;;;;;;;;;;5031942;28;20039;-82
2022/10/23 03:29:25;;;;;;;15.23;11.30;;;;;;;;;;5022984;28;20509;-83
2022/10/23 03:31:51;;;;;;;20.60;11.38;;;;;;;;;;5032769;28;20029;-84
2022/10/23 03:34:18;;;;;;;17.90;9.80;;;;;;;;;;5034139;28;20056;-83
2022/10/23 03:36:44;;;;;;;19.58;11.32;;;;;;;;;;5033156;28;20451;-83
2022/10/23 03:39:10;;;;;;;20.98;14.25;;;;;;;;;;5034179;28;20091;-81
2022/10/23 03:41:36;;;;;;;17.27;12.15;;;;;;;;;;5034328;28;20025;-84
2022/10/23 03:44:02;;;;;;;16.95;11.07;;;;;;;;;;5033796;28;20027;-83
2022/10/23 03:46:28;;;;;;;16.20;9.85;;;;;;;;;;5029681;28;20492;-83
2022/10/23 03:48:57;;;;;;;21.13;12.32;;;;;;;;;;5045170;28;20152;-81
2022/10/23 03:51:24;;;;;;;17.40;10.77;;;;;;;;;;5035850;28;20501;-83
2022/10/23 03:53:50;;;;;;;17.05;9.23;;;;;;;;;;5032911;28;20043;-81
2022/10/23 03:56:16;;;;;;;17.15;10.60;;;;;;;;;;5033650;28;20061;-84
2022/10/23 03:58:42;;;;;;;16.77;12.63;;;;;;;;;;5033892;28;20025;-82
2022/10/23 04:01:08;;;;;;;15.43;11.45;;;;;;;;;;5033934;28;20033;-83
2022/10/23 04:03:35;;;;;;;17.10;10.15;;;;;;;;;;5045696;28;20032;-82
2022/10/23 04:06:01;;;;;;;22.40;13.65;;;;;;;;;;5035050;28;20482;-84
2022/10/23 04:08:27;;;;;;;17.90;13.57;;;;;;;;;;5032141;28;20022;-82
2022/10/23 04:10:54;;;;;;;20.92;12.07;;;;;;;;;;5033495;28;20363;-82
2022/10/23 04:13:20;;;;;;;18.08;11.30;;;;;;;;;;5031582;28;20116;-84
2022/10/23 04:15:50;;;;;;;16.70;10.65;;;;;;;;;;5032862;28;20029;-83
2022/10/23 04:18:16;;;;;;;18.58;12.48;;;;;;;;;;5047887;28;20032;-83
2022/10/23 04:20:42;;;;;;;20.27;12.88;;;;;;;;;;5033449;28;20083;-84
2022/10/23 04:23:08;;;;;;;19.45;11.52;;;;;;;;;;5033501;28;20022;-85
2022/10/23 04:25:34;;;;;;;18.33;10.80;;;;;;;;;;5040752;28;20040;-85
2022/10/23 04:28:00;;;;;;;16.83;11.77;;;;;;;;;;5047066;28;20076;-86
2022/10/23 04:30:26;;;;;;;18.08;10.55;;;;;;;;;;5036367;28;20053;-84
2022/10/23 04:32:52;;;;;;;19.45;13.32;;;;;;;;;;5037399;28;20054;-85
2022/10/23 04:35:19;;;;;;;23.83;14.38;;;;;;;;;;5033011;28;20087;-85
2022/10/23 04:37:45;;;;;;;20.92;11.52;;;;;;;;;;5033307;28;20026;-85
2022/10/23 04:40:11;;;;;;;20.60;13.52;;;;;;;;;;5026758;28;20033;-84
2022/10/23 04:42:38;;;;;;;21.40;12.98;;;;;;;;;;5031557;28;20025;-85
2022/10/23 04:45:04;;;;;;;23.50;14.20;;;;;;;;;;5033306;28;20063;-87
2022/10/23 04:47:30;;;;;;;24.20;14.18;;;;;;;;;;5032135;28;20030;-84
2022/10/23 04:49:56;;;;;;;22.50;14.75;;;;;;;;;;5034861;28;20045;-85
2022/10/23 04:52:23;;;;;;;19.48;12.73;;;;;;;;;;5034104;28;20037;-83
2022/10/23 04:54:49;;;;;;;19.77;13.43;;;;;;;;;;5034660;28;20096;-86
2022/10/23 04:57:15;;;;;;;23.25;14.43;;;;;;;;;;5024755;28;20076;-84
2022/10/23 04:59:41;;;;;;;20.70;15.27;;;;;;;;;;5033923;28;20036;-86
2022/10/23 05:02:07;;;;;;;20.52;12.65;;;;;;;;;;5024602;28;20030;-84
2022/10/23 05:04:33;;;;;;;20.73;14.82;;;;;;;;;;5041962;28;20014;-85
2022/10/23 05:06:59;;;;;;;22.85;13.70;;;;;;;;;;5019423;28;20052;-87
2022/10/23 05:09:25;;;;;;;22.75;13.90;;;;;;;;;;5036205;28;20021;-85
2022/10/23 05:11:52;;;;;;;19.50;13.40;;;;;;;;;;5048247;28;20025;-81
2022/10/23 05:14:18;;;;;;;21.00;12.90;;;;;;;;;;5051116;28;20010;-84
2022/10/23 05:16:44;;;;;;;20.98;14.50;;;;;;;;;;5028216;28;20034;-85
2022/10/23 05:19:12;;;;;;;20.85;13.40;;;;;;;;;;5024322;28;20380;-86
2022/10/23 05:21:39;;;;;;;25.05;13.80;;;;;;;;;;5042188;28;20041;-83
2022/10/23 05:24:05;;;;;;;21.70;14.57;;;;;;;;;;5040437;28;20030;-82
2022/10/23 05:26:31;;;;;;;21.10;13.55;;;;;;;;;;5030884;28;20036;-84
2022/10/23 05:28:58;;;;;;;21.63;14.43;;;;;;;;;;5021155;28;20108;-83
2022/10/23 05:31:25;;;;;;;20.20;12.50;;;;;;;;;;5032867;28;20025;-83
2022/10/23 05:33:52;;;;;;;26.27;17.00;;;;;;;;;;5032730;28;20099;-83
2022/10/23 05:36:18;;;;;;;22.83;15.27;;;;;;;;;;5046941;28;20036;-84
2022/10/23 05:38:44;;;;;;;21.42;13.35;;;;;;;;;;5036584;28;20057;-83
2022/10/23 05:41:11;;;;;;;22.63;14.43;;;;;;;;;;5032184;28;20057;-83
2022/10/23 05:43:37;;;;;;;22.65;14.25;;;;;;;;;;5032220;28;20305;-85
2022/10/23 05:46:06;;;;;;;22.80;12.50;;;;;;;;;;5032194;28;20025;-84
2022/10/23 05:48:32;;;;;;;25.00;15.30;;;;;;;;;;5032469;28;20022;-83
2022/10/23 05:51:05;;;;;;;20.25;13.77;;;;;;;;;;5030936;28;20399;-83
2022/10/23 05:53:32;;;;;;;22.90;14.13;;;;;;;;;;5032424;28;20026;-83
2022/10/23 05:56:04;;;;;;;23.30;14.90;;;;;;;;;;5035309;28;20029;-87
2022/10/23 05:58:30;;;;;;;25.30;14.75;;;;;;;;;;5036771;28;20016;-85
2022/10/23 06:00:56;;;;;;;25.85;16.33;;;;;;;;;;5037820;28;20028;-86
2022/10/23 06:03:36;;;;;;;26.77;17.13;;;;;;;;;;5056480;28;20022;-84
2022/10/23 06:06:03;;;;;;;23.10;13.80;;;;;;;;;;5040235;28;20026;-83
2022/10/23 06:08:29;;;;;;;26.92;16.83;;;;;;;;;;5042739;28;20036;-83
2022/10/23 06:10:55;;;;;;;24.67;14.90;;;;;;;;;;5040547;28;20106;-85
2022/10/23 06:13:21;;;;;;;24.08;15.10;;;;;;;;;;5036670;28;20029;-86
2022/10/23 06:15:47;;;;;;;26.48;16.52;;;;;;;;;;5036142;28;20599;-86
2022/10/23 06:18:14;;;;;;;29.33;16.02;;;;;;;;;;5022869;28;20173;-87
2022/10/23 06:20:40;;;;;;;22.92;13.93;;;;;;;;;;5040501;28;20100;-85
2022/10/23 06:23:06;;;;;;;23.95;14.23;;;;;;;;;;5039212;28;20124;-83
2022/10/23 06:25:33;;;;;;;25.35;14.90;;;;;;;;;;5035942;28;20486;-85
2022/10/23 06:27:59;;;;;;;26.33;15.73;;;;;;;;;;5036068;28;20029;-85
2022/10/23 06:30:25;;;;;;;22.77;15.05;;;;;;;;;;5035712;28;20060;-85
2022/10/23 06:32:51;;;;;;;21.63;15.07;;;;;;;;;;5031276;28;20130;-87
2022/10/23 06:35:17;;;;;;;25.17;16.48;;;;;;;;;;5030191;28;20084;-85
2022/10/23 06:37:43;;;;;;;21.92;13.88;;;;;;;;;;5030361;28;20022;-84
2022/10/23 06:40:10;;;;;;;23.20;15.27;;;;;;;;;;5028397;28;20037;-86
2022/10/23 06:42:36;;;;;;;23.95;14.88;;;;;;;;;;5033385;28;20030;-87
2022/10/23 06:45:02;;;;;;;26.73;14.55;;;;;;;;;;5034716;28;20025;-86
2022/10/23 06:47:28;;;;;;;26.15;16.00;;;;;;;;;;5036649;28;20095;-86
2022/10/23 06:49:54;;;;;;;28.15;15.25;;;;;;;;;;5035804;28;20037;-87
2022/10/23 06:52:20;;;;;;;21.70;15.38;;;;;;;;;;5032325;28;20022;-85
2022/10/23 06:54:46;;;;;;;27.48;16.10;;;;;;;;;;5034228;28;20035;-84
2022/10/23 06:57:12;;;;;;;22.15;13.93;;;;;;;;;;5033016;28;20030;-85
2022/10/23 06:59:38;;;;;;;29.65;18.63;;;;;;;;;;5034461;28;20021;-87
2022/10/23 07:02:05;;;;;;;26.30;15.40;;;;;;;;;;5036896;28;20037;-88
2022/10/23 07:04:38;;;;;;;24.80;16.70;;;;;;;;;;5033969;28;20025;-86
2022/10/23 07:07:05;;;;;;;27.40;17.10;;;;;;;;;;5025096;28;20052;-88
2022/10/23 07:09:32;;;;;;;23.65;15.48;;;;;;;;;;5051928;28;20025;-85
2022/10/23 07:11:58;;;;;;;30.52;18.10;;;;;;;;;;5051397;28;20066;-86
2022/10/23 07:14:24;;;;;;;26.48;17.80;;;;;;;;;;5034771;28;20032;-85
2022/10/23 07:16:50;;;;;;;22.92;16.33;;;;;;;;;;5035486;28;20104;-86
2022/10/23 07:19:19;;;;;;;26.27;15.15;;;;;;;;;;5037290;28;20028;-87
2022/10/23 07:21:47;;;;;;;22.45;14.60;;;;;;;;;;5042927;28;20024;-86
2022/10/23 07:24:13;;;;;;;28.13;16.92;;;;;;;;;;5040154;28;20052;-85
2022/10/23 07:26:40;;;;;;;30.20;17.65;;;;;;;;;;5037283;28;20038;-87
2022/10/23 07:29:07;;;;;;;24.27;16.73;;;;;;;;;;5031129;28;20497;-84
2022/10/23 07:31:33;;;;;;;27.35;18.23;;;;;;;;;;5041263;28;20817;-90
2022/10/23 07:34:00;;;;;;;30.45;16.90;;;;;;;;;;5034871;28;20112;-87
2022/10/23 07:36:26;;;;;;;25.27;16.40;;;;;;;;;;5034087;28;20044;-88
2022/10/23 07:38:52;;;;;;;29.92;18.42;;;;;;;;;;5033810;28;20036;-87
2022/10/23 07:41:18;;;;;;;23.95;16.92;;;;;;;;;;5026704;28;20033;-87
2022/10/23 07:43:44;;;;;;;24.67;15.75;;;;;;;;;;5030707;28;20036;-89
2022/10/23 07:46:11;;;;;;;29.10;16.95;;;;;;;;;;5038848;28;20067;-89
2022/10/23 07:48:38;;;;;;;24.40;16.05;;;;;;;;;;5055470;28;20028;-88
2022/10/23 07:51:10;;;;;;;38.47;18.00;;;;;;;;;;5044058;28;20037;-88
2022/10/23 07:53:36;;;;;;;30.98;18.25;;;;;;;;;;5042793;28;20052;-88
2022/10/23 07:56:09;;;;;;;33.05;16.95;;;;;;;;;;5039616;28;20041;-88
2022/10/23 07:58:35;;;;;;;30.10;17.30;;;;;;;;;;5040604;28;20045;-86
2022/10/23 08:01:03;;;;;;;32.88;18.70;;;;;;;;;;5041734;28;20037;-86
2022/10/23 08:03:30;;;;;;;32.53;19.40;;;;;;;;;;5041254;28;20040;-88
2022/10/23 08:05:57;;;;;;;31.90;19.08;;;;;;;;;;5046811;28;20100;-85
2022/10/23 08:08:23;;;;;;;28.08;17.17;;;;;;;;;;5043510;28;20018;-85
2022/10/23 08:10:50;;;;;;;29.67;19.75;;;;;;;;;;5045941;28;20108;-86
2022/10/23 08:13:19;;;;;;;33.58;20.17;;;;;;;;;;5044768;28;20021;-85
2022/10/23 08:15:46;;;;;;;28.55;17.48;;;;;;;;;;5039433;28;20555;-86
2022/10/23 08:18:14;;;;;;;27.43;17.90;;;;;;;;;;5037746;28;20022;-89
2022/10/23 08:20:44;;;;;;;28.30;19.58;;;;;;;;;;5047363;28;20025;-87
2022/10/23 08:23:11;;;;;;;30.08;16.10;;;;;;;;;;5048517;28;20029;-82
2022/10/23 08:25:37;;;;;;;28.80;19.55;;;;;;;;;;5048885;28;20388;-84
2022/10/23 08:28:04;;;;;;;28.60;17.52;;;;;;;;;;5048337;28;20045;-83
2022/10/23 08:30:31;;;;;;;35.75;19.65;;;;;;;;;;5042345;28;20108;-83
2022/10/23 08:32:57;;;;;;;34.85;18.65;;;;;;;;;;5033055;28;20033;-85
2022/10/23 08:35:23;;;;;;;35.90;20.50;;;;;;;;;;5038177;28;20041;-84
2022/10/23 08:37:49;;;;;;;43.65;22.40;;;;;;;;;;5024238;28;20030;-86
2022/10/23 08:40:21;;;;;;;33.47;19.40;;;;;;;;;;5035438;28;20565;-84
2022/10/23 08:43:05;;;;;;;34.83;20.88;;;;;;;;;;5065680;28;20029;-85
2022/10/23 08:45:41;;;;;;;41.65;19.42;;;;;;;;;;5052479;28;20383;-85
2022/10/23 08:48:14;;;;;;;41.42;21.48;;;;;;;;;;5037306;28;20028;-86
2022/10/23 08:50:43;;;;;;;31.33;18.20;;;;;;;;;;5040239;28;20450;-84
2022/10/23 08:53:14;;;;;;;39.33;23.13;;;;;;;;;;5047922;28;20056;-85
2022/10/23 08:55:46;;;;;;;38.88;21.33;;;;;;;;;;5040292;28;20092;-81
2022/10/23 08:58:18;;;;;;;37.45;19.70;;;;;;;;;;5029934;28;20021;-82
2022/10/23 09:00:48;;;;;;;34.60;19.23;;;;;;;;;;5030300;28;20026;-82
2022/10/23 09:03:14;;;;;;;42.00;19.25;;;;;;;;;;5033761;28;20075;-82
2022/10/23 09:06:07;;;;;;;40.55;21.88;;;;;;;;;;5037652;28;20080;-83
2022/10/23 09:08:39;;;;;;;35.85;20.08;;;;;;;;;;5037861;28;20096;-82
2022/10/23 09:11:08;;;;;;;39.92;21.33;;;;;;;;;;5047385;28;20422;-81
2022/10/23 09:13:57;;;;;;;40.20;21.35;;;;;;;;;;5039215;28;20026;-82
2022/10/23 09:16:44;;;;;;;36.35;21.05;;;;;;;;;;5037585;28;20060;-84
2022/10/23 09:19:26;;;;;;;40.13;19.98;;;;;;;;;;5024971;28;20026;-81
2022/10/23 09:21:54;;;;;;;42.63;21.38;;;;;;;;;;5032401;28;20479;-80
2022/10/23 09:24:22;;;;;;;38.72;20.75;;;;;;;;;;5033900;28;20084;-81
2022/10/23 09:26:49;;;;;;;38.45;21.77;;;;;;;;;;5033848;28;20471;-83
2022/10/23 09:29:29;;;;;;;42.15;21.77;;;;;;;;;;5026738;28;20032;-85
2022/10/23 09:32:01;;;;;;;33.20;19.92;;;;;;;;;;5034473;28;20052;-83
2022/10/23 09:37:26;;;;;;;45.35;24.17;;;;;;;;;;5040134;28;20033;-85
2022/10/23 09:46:45;;;;;;;39.08;22.88;;;;;;;;;;5033494;28;20116;-87
2022/10/23 09:49:48;;;;;;;47.80;23.85;;;;;;;;;;5036523;28;20052;-82
2022/10/23 09:52:32;;;;;;;39.00;22.63;;;;;;;;;;4995642;28;20145;-82
2022/10/23 09:55:06;;;;;;;43.70;23.17;;;;;;;;;;5002700;28;20037;-84
2022/10/23 09:57:36;;;;;;;46.67;22.08;;;;;;;;;;5000530;28;20033;-85
2022/10/23 10:00:19;;;;;;;42.50;23.90;;;;;;;;;;4988925;28;20033;-83
2022/10/23 10:03:05;;;;;;;38.08;19.85;;;;;;;;;;5000090;28;20061;-88
2022/10/23 10:05:36;;;;;;;44.65;22.90;;;;;;;;;;4994504;28;20098;-86
2022/10/23 10:08:11;;;;;;;44.63;24.00;;;;;;;;;;5005599;28;20038;-84
2022/10/23 10:10:39;;;;;;;41.78;21.42;;;;;;;;;;5005408;28;20033;-82
2022/10/23 10:13:15;;;;;;;37.88;21.55;;;;;;;;;;4998241;28;20030;-83
2022/10/23 10:15:50;;;;;;;40.58;21.17;;;;;;;;;;5005504;28;20080;-81
2022/10/23 10:18:23;;;;;;;49.40;24.38;;;;;;;;;;4999486;28;20027;-81
2022/10/23 10:20:54;;;;;;;45.45;21.15;;;;;;;;;;5018619;28;20050;-81
2022/10/23 10:23:26;;;;;;;39.35;21.88;;;;;;;;;;5001240;28;20090;-83
2022/10/23 10:26:07;;;;;;;46.92;25.08;;;;;;;;;;5009206;28;20030;-88
2022/10/23 10:28:52;;;;;;;41.40;24.00;;;;;;;;;;5011487;28;20106;-84
2022/10/23 10:31:56;;;;;;;43.63;24.73;;;;;;;;;;5006378;28;20034;-83
2022/10/23 10:34:25;;;;;;;48.63;23.70;;;;;;;;;;4983277;28;20027;-84
2022/10/23 10:36:56;;;;;;;46.05;25.60;;;;;;;;;;4982939;28;20455;-85
2022/10/23 10:39:31;;;;;;;43.13;23.58;;;;;;;;;;4996943;28;20037;-84
2022/10/23 10:42:03;;;;;;;39.92;25.52;;;;;;;;;;4997827;28;20023;-83
2022/10/23 10:44:36;;;;;;;41.92;23.67;;;;;;;;;;5002765;28;20105;-83
2022/10/23 10:47:10;;;;;;;37.60;22.58;;;;;;;;;;5003971;28;20023;-86
2022/10/23 10:49:58;;;;;;;48.08;24.30;;;;;;;;;;5011363;28;20555;-84
2022/10/23 10:52:27;;;;;;;40.08;22.50;;;;;;;;;;5041946;28;20053;-82
2022/10/23 10:55:09;;;;;;;45.78;26.67;;;;;;;;;;5042255;28;20025;-83
2022/10/23 10:57:38;;;;;;;43.25;22.65;;;;;;;;;;5043292;28;20037;-84
2022/10/23 11:00:15;;;;;;;40.45;24.17;;;;;;;;;;5042219;28;20029;-82
2022/10/23 11:02:49;;;;;;;39.42;21.55;;;;;;;;;;5047524;28;20017;-83
2022/10/23 11:05:19;;;;;;;46.03;23.98;;;;;;;;;;5045333;28;20047;-84
2022/10/23 11:07:58;;;;;;;48.67;21.63;;;;;;;;;;5044677;28;20068;-83
2022/10/23 11:10:26;;;;;;;36.95;24.02;;;;;;;;;;5040400;28;20029;-82
2022/10/23 11:12:52;;;;;;;;;;;;;;;;;;5045728;28;20030;-84
2022/10/23 11:15:21;;;;;;;41.83;23.20;;;;;;;;;;5043893;28;19913;-83
2022/10/23 11:17:50;;;;;;;42.53;25.27;;;;;;;;;;5049031;28;20017;-81
2022/10/23 11:20:25;;;;;;;42.50;22.90;;;;;;;;;;5037473;28;20077;-82
2022/10/23 11:23:08;;;;;;;48.00;25.65;;;;;;;;;;5037282;28;20079;-83
2022/10/23 11:25:40;;;;;;;40.53;22.98;;;;;;;;;;5039273;28;20052;-82
2022/10/23 11:28:23;;;;;;;41.10;20.52;;;;;;;;;;5048726;28;20033;-85
2022/10/23 11:30:54;;;;;;;34.35;20.85;;;;;;;;;;5029781;28;20060;-86
2022/10/23 11:33:36;;;;;;;34.25;18.77;;;;;;;;;;5042601;28;20040;-82
2022/10/23 11:36:15;;;;;;;42.13;23.75;;;;;;;;;;5041046;28;20061;-83
2022/10/23 11:38:43;;;;;;;43.35;24.95;;;;;;;;;;5041311;28;20076;-84
2022/10/23 11:41:18;;;;;;;43.75;23.30;;;;;;;;;;5028632;28;20110;-85
2022/10/23 11:44:04;;;;;;;42.83;24.92;;;;;;;;;;5036858;28;20029;-87
2022/10/23 11:46:31;;;;;;;39.55;26.77;;;;;;;;;;5046616;28;20018;-83
2022/10/23 11:49:01;;;;;;;41.45;23.40;;;;;;;;;;5045910;28;20029;-83
2022/10/23 11:51:35;;;;;;;41.38;24.02;;;;;;;;;;5034933;28;20041;-84
2022/10/23 11:54:07;;;;;;;42.72;23.98;;;;;;;;;;5038964;28;20038;-89
2022/10/23 11:56:33;;;;;;;46.63;23.80;;;;;;;;;;5047861;28;20061;-85
2022/10/23 11:59:19;;;;;;;49.90;24.70;;;;;;;;;;5040087;28;20024;-85
2022/10/23 12:01:46;;;;;;;51.75;24.45;;;;;;;;;;5048646;28;20021;-84
2022/10/23 12:04:12;;;;;;;47.92;24.95;;;;;;;;;;5046453;28;20021;-81
2022/10/23 12:06:39;;;;;;;44.38;23.83;;;;;;;;;;5042421;28;20025;-84
2022/10/23 12:09:21;;;;;;;47.20;26.58;;;;;;;;;;5043245;28;20029;-83
2022/10/23 12:11:50;;;;;;;39.05;24.02;;;;;;;;;;5042634;28;20021;-85
2022/10/23 12:14:26;;;;;;;42.05;24.27;;;;;;;;;;5045187;28;20021;-86
2022/10/23 12:16:55;;;;;;;49.92;26.50;;;;;;;;;;5047421;28;20033;-85
2022/10/23 12:19:22;;;;;;;51.65;26.75;;;;;;;;;;5043771;28;20025;-84
2022/10/23 12:21:53;;;;;;;46.97;29.40;;;;;;;;;;5045848;28;20083;-81
2022/10/23 12:24:22;;;;;;;46.97;27.38;;;;;;;;;;5038932;28;20068;-87
2022/10/23 12:27:03;;;;;;;56.35;30.33;;;;;;;;;;5041258;28;20030;-87
2022/10/23 12:29:29;;;;;;;42.15;26.10;;;;;;;;;;5044023;28;20107;-87
2022/10/23 12:32:06;;;;;;;47.20;27.25;;;;;;;;;;5039311;28;20033;-84
2022/10/23 12:35:05;;;;;;;50.92;27.63;;;;;;;;;;5038686;28;20494;-89
2022/10/23 12:37:43;;;;;;;46.90;29.10;;;;;;;;;;5015743;28;20085;-85
2022/10/23 12:40:10;;;;;;;47.35;25.88;;;;;;;;;;5036539;28;20442;-85
2022/10/23 12:42:44;;;;;;;51.27;31.33;;;;;;;;;;5035946;28;20025;-85
2022/10/23 12:45:19;;;;;;;56.30;30.23;;;;;;;;;;5036501;28;20581;-83
2022/10/23 12:47:49;;;;;;;55.80;30.33;;;;;;;;;;5034933;28;20029;-85
2022/10/23 12:50:26;;;;;;;56.10;27.67;;;;;;;;;;5033222;28;20101;-87
2022/10/23 12:53:00;;;;;;;54.38;31.48;;;;;;;;;;5035065;28;20447;-83
2022/10/23 12:55:45;;;;;;;51.92;31.58;;;;;;;;;;5035412;28;20132;-83
2022/10/23 12:58:20;;;;;;;56.60;30.55;;;;;;;;;;5036076;28;20186;-84
2022/10/23 13:00:51;;;;;;;59.00;30.98;;;;;;;;;;5037747;28;20032;-85
2022/10/23 13:03:17;;;;;;;43.00;27.50;;;;;;;;;;5040458;28;20084;-84
2022/10/23 13:05:46;;;;;;;50.42;29.08;;;;;;;;;;5042154;28;20030;-82
2022/10/23 13:08:15;;;;;;;54.47;27.55;;;;;;;;;;5045739;28;20018;-81
2022/10/23 13:10:44;;;;;;;45.13;28.10;;;;;;;;;;5038427;28;20037;-82
2022/10/23 13:13:11;;;;;;;45.25;24.48;;;;;;;;;;5037634;28;20025;-81
2022/10/23 13:15:39;;;;;;;50.20;27.45;;;;;;;;;;5036295;28;20580;-85
2022/10/23 13:18:06;;;;;;;50.33;29.42;;;;;;;;;;5037362;28;20084;-84
2022/10/23 13:20:36;;;;;;;;;;;;;;;;;;5040519;28;20036;-81
2022/10/23 13:23:09;;;;;;;43.95;27.23;;;;;;;;;;5042156;28;19955;-83
2022/10/23 13:25:36;;;;;;;52.08;31.75;;;;;;;;;;5039216;28;20057;-83
2022/10/23 13:28:08;;;;;;;53.08;28.17;;;;;;;;;;5036743;28;20128;-82
2022/10/23 13:30:37;;;;;;;51.88;31.40;;;;;;;;;;5043489;28;20385;-84
2022/10/23 13:33:14;;;;;;;44.88;27.42;;;;;;;;;;5041109;28;20025;-83
2022/10/23 13:35:43;;;;;;;50.20;30.00;;;;;;;;;;5049064;28;20045;-85
2022/10/23 13:38:09;;;;;;;50.10;29.08;;;;;;;;;;5038786;28;20033;-82
2022/10/23 13:40:35;;;;;;;47.15;27.88;;;;;;;;;;5037100;28;20036;-85
2022/10/23 13:43:02;;;;;;;56.60;31.60;;;;;;;;;;5030058;28;20028;-86
2022/10/23 13:45:28;;;;;;;49.05;28.45;;;;;;;;;;5036325;28;20018;-83
2022/10/23 13:47:55;;;;;;;52.17;29.95;;;;;;;;;;5036516;28;20026;-83
2022/10/23 13:50:22;;;;;;;42.55;28.48;;;;;;;;;;5035074;28;20046;-83
2022/10/23 13:52:48;;;;;;;46.33;26.52;;;;;;;;;;5037032;28;20093;-83
2022/10/23 13:55:22;;;;;;;43.35;26.13;;;;;;;;;;5037554;28;20028;-85
2022/10/23 13:57:48;;;;;;;50.42;30.60;;;;;;;;;;5037712;28;20036;-81
2022/10/23 14:00:15;;;;;;;47.40;28.40;;;;;;;;;;5038956;28;20482;-85
2022/10/23 14:02:47;;;;;;;50.10;29.10;;;;;;;;;;5039132;28;20026;-82
2022/10/23 14:05:13;;;;;;;43.58;26.77;;;;;;;;;;5038337;28;20033;-84
2022/10/23 14:07:39;;;;;;;50.30;27.65;;;;;;;;;;5039132;28;20037;-82
2022/10/23 14:10:06;;;;;;;49.20;25.88;;;;;;;;;;5043795;28;20024;-83
2022/10/23 14:12:38;;;;;;;48.15;25.70;;;;;;;;;;5032538;28;20525;-83
2022/10/23 14:15:04;;;;;;;37.63;25.25;;;;;;;;;;5032636;28;20135;-83
2022/10/23 14:17:30;;;;;;;45.42;26.92;;;;;;;;;;5029984;28;20025;-82
2022/10/23 14:19:56;;;;;;;42.88;23.33;;;;;;;;;;5030316;28;20026;-82
2022/10/23 14:22:22;;;;;;;36.75;24.25;;;;;;;;;;5034588;28;20060;-80
2022/10/23 14:24:48;;;;;;;42.88;24.98;;;;;;;;;;5041773;28;20036;-80
2022/10/23 14:27:14;;;;;;;45.25;24.80;;;;;;;;;;5037103;28;20363;-83
2022/10/23 14:29:41;;;;;;;37.33;22.88;;;;;;;;;;5033093;28;20478;-82
2022/10/23 14:32:07;;;;;;;36.25;24.20;;;;;;;;;;5038996;28;20033;-83
2022/10/23 14:34:33;;;;;;;37.38;22.88;;;;;;;;;;5038814;28;20028;-82
2022/10/23 14:36:59;;;;;;;37.45;24.70;;;;;;;;;;5040212;28;20414;-84
2022/10/23 14:39:26;;;;;;;39.22;24.58;;;;;;;;;;5037916;28;20091;-86
2022/10/23 14:41:52;;;;;;;41.22;25.48;;;;;;;;;;5039082;28;20029;-88
2022/10/23 14:44:18;;;;;;;42.75;27.27;;;;;;;;;;5038365;28;20018;-85